PWSweather.com
Personal Weather Stations
Station Observations

DeskleSI

Lat: 46.0525, Lon: 13.6103

Elevation: 300

Station Type: Oregon Scientific WMR200

http://vreme-deskle.slohosting.com/

High Low Average
Temperature 54.9°F12.7°C 46.8°F8.2°C 51.4°F10.8°C
Dew Point 51.1°F10.6°C 44.3°F6.8°C 48.0°F8.9°C
Winds 10.3 mph 16.6 kmh Calm Calm 2.0 mph SW3.2 kmh SW
Wind Gusts 17.4 mph28.0 kmh -- 6.0 mph9.7 kmh
Humidity 92% 82% 88%
Pressure 29.65 in1004.1 mb 29.50 in999.0 mb -
Precipitation 0.34 in8.6 mm - -
Hour Temp Dew Point Humidity Winds Wind Gusts Pressure Precip Precip Rate Daily Precip Total
12:00 AM 54.9°F12.7°C 51.1°F10.6°C 87% 6.9 mph WNW11.1 kmh WNW 17.4 mph28.0 kmh 29.53 in1000.0 mb 0.04 in1.0 mm 0.00 in0.0 mm 0.04 in1.0 mm
12:05 AM 54.7°F12.6°C 50.9°F10.5°C 87% 4.9 mph NW7.9 kmh NW 10.1 mph16.3 kmh 29.53 in1000.0 mb 0.00 in0.0 mm 0.00 in0.0 mm 0.04 in1.0 mm
12:10 AM 54.7°F12.6°C 50.9°F10.5°C 87% 9.4 mph NW15.1 kmh NW 14.5 mph23.3 kmh 29.50 in999.0 mb 0.00 in0.0 mm 0.00 in0.0 mm 0.04 in1.0 mm
12:15 AM 54.5°F12.5°C 51.0°F10.6°C 88% 6.9 mph NW11.1 kmh NW 14.5 mph23.3 kmh 29.50 in999.0 mb 0.00 in0.0 mm 0.00 in0.0 mm 0.04 in1.0 mm
12:20 AM 54.5°F12.5°C 51.0°F10.6°C 88% 7.2 mph WNW11.6 kmh WNW 10.7 mph17.2 kmh 29.50 in999.0 mb 0.00 in0.0 mm 0.00 in0.0 mm 0.04 in1.0 mm
12:25 AM 54.5°F12.5°C 51.0°F10.6°C 88% 3.1 mph W5.0 kmh W 12.8 mph20.6 kmh 29.53 in1000.0 mb 0.00 in0.0 mm 0.00 in0.0 mm 0.04 in1.0 mm
12:30 AM 54.3°F12.4°C 50.8°F10.4°C 88% 6.9 mph W11.1 kmh W 12.8 mph20.6 kmh 29.53 in1000.0 mb 0.00 in0.0 mm 0.00 in0.0 mm 0.04 in1.0 mm
12:35 AM 54.3°F12.4°C 50.5°F10.3°C 87% 2.2 mph SW3.5 kmh SW 12.3 mph19.8 kmh 29.53 in1000.0 mb 0.00 in0.0 mm 0.00 in0.0 mm 0.04 in1.0 mm
12:40 AM 54.3°F12.4°C 50.5°F10.3°C 87% 4.5 mph SW7.2 kmh SW 12.3 mph19.8 kmh 29.56 in1001.0 mb 0.00 in0.0 mm 0.00 in0.0 mm 0.04 in1.0 mm
12:45 AM 54.0°F12.2°C 50.2°F10.1°C 87% 7.6 mph W12.2 kmh W 10.3 mph16.6 kmh 29.56 in1001.0 mb 0.00 in0.0 mm 0.00 in0.0 mm 0.04 in1.0 mm
12:50 AM 54.0°F12.2°C 50.2°F10.1°C 87% 3.4 mph W5.5 kmh W 10.5 mph16.9 kmh 29.56 in1001.0 mb 0.00 in0.0 mm 0.00 in0.0 mm 0.04 in1.0 mm
12:55 AM 53.6°F12.0°C 49.8°F9.9°C 87% 10.3 mph WNW16.6 kmh WNW 14.5 mph23.3 kmh 29.56 in1001.0 mb 0.00 in0.0 mm 0.00 in0.0 mm 0.04 in1.0 mm
01:00 AM 53.8°F12.1°C 50.0°F10.0°C 87% 6.0 mph W9.7 kmh W 14.5 mph23.3 kmh 29.56 in1001.0 mb 0.05 in1.3 mm 0.05 in1.3 mm 0.05 in1.3 mm
01:05 AM 53.8°F12.1°C 50.0°F10.0°C 87% 4.7 mph W7.6 kmh W 13.0 mph20.9 kmh 29.56 in1001.0 mb 0.05 in1.3 mm 0.00 in0.0 mm 0.05 in1.3 mm
01:10 AM 53.6°F12.0°C 49.8°F9.9°C 87% 3.8 mph WNW6.1 kmh WNW 15.2 mph24.5 kmh 29.56 in1001.0 mb 0.05 in1.3 mm 0.00 in0.0 mm 0.05 in1.3 mm
01:15 AM 53.2°F11.8°C 49.8°F9.9°C 88% 3.1 mph W5.0 kmh W 15.2 mph24.5 kmh 29.56 in1001.0 mb 0.05 in1.3 mm 0.00 in0.0 mm 0.05 in1.3 mm
01:20 AM 53.2°F11.8°C 49.8°F9.9°C 88% 3.4 mph W5.5 kmh W 10.7 mph17.2 kmh 29.56 in1001.0 mb 0.05 in1.3 mm 0.00 in0.0 mm 0.05 in1.3 mm
01:25 AM 53.2°F11.8°C 49.8°F9.9°C 88% 5.4 mph NW8.7 kmh NW 10.7 mph17.2 kmh 29.59 in1002.0 mb 0.05 in1.3 mm 0.00 in0.0 mm 0.05 in1.3 mm
01:30 AM 53.1°F11.7°C 49.6°F9.8°C 88% 4.5 mph NW7.2 kmh NW 11.2 mph18.0 kmh 29.59 in1002.0 mb 0.05 in1.3 mm 0.00 in0.0 mm 0.05 in1.3 mm
01:35 AM 52.9°F11.6°C 49.7°F9.8°C 89% 4.7 mph NW7.6 kmh NW 11.2 mph18.0 kmh 29.59 in1002.0 mb 0.05 in1.3 mm 0.00 in0.0 mm 0.05 in1.3 mm
01:40 AM 52.9°F11.6°C 49.7°F9.8°C 89% 4.3 mph W6.9 kmh W 8.1 mph13.0 kmh 29.59 in1002.0 mb 0.05 in1.3 mm 0.00 in0.0 mm 0.05 in1.3 mm
01:45 AM 52.9°F11.6°C 49.7°F9.8°C 89% 3.8 mph W6.1 kmh W 8.1 mph13.0 kmh 29.59 in1002.0 mb 0.05 in1.3 mm 0.00 in0.0 mm 0.05 in1.3 mm
01:50 AM 52.7°F11.5°C 49.5°F9.7°C 89% 9.6 mph NW15.4 kmh NW 15.2 mph24.5 kmh 29.59 in1002.0 mb 0.05 in1.3 mm 0.00 in0.0 mm 0.05 in1.3 mm
01:55 AM 52.7°F11.5°C 49.5°F9.7°C 89% 2.5 mph NW4.0 kmh NW 15.2 mph24.5 kmh 29.59 in1002.0 mb 0.09 in2.3 mm 0.48 in12.2 mm 0.09 in2.3 mm
02:00 AM 52.5°F11.4°C 49.4°F9.7°C 89% 6.9 mph WNW11.1 kmh WNW 13.2 mph21.2 kmh 29.59 in1002.0 mb 0.04 in1.0 mm 0.00 in0.0 mm 0.09 in2.3 mm
02:05 AM 52.5°F11.4°C 49.4°F9.7°C 89% 8.7 mph WNW14.0 kmh WNW 15.2 mph24.5 kmh 29.59 in1002.0 mb 0.04 in1.0 mm 0.00 in0.0 mm 0.09 in2.3 mm
02:10 AM 52.3°F11.3°C 49.2°F9.6°C 89% 7.6 mph NW12.2 kmh NW 15.2 mph24.5 kmh 29.56 in1001.0 mb 0.04 in1.0 mm 0.00 in0.0 mm 0.09 in2.3 mm
02:15 AM 52.3°F11.3°C 49.2°F9.6°C 89% 5.6 mph NW9.0 kmh NW 17.4 mph28.0 kmh 29.56 in1001.0 mb 0.04 in1.0 mm 0.00 in0.0 mm 0.09 in2.3 mm
02:20 AM 52.3°F11.3°C 49.2°F9.6°C 89% 6.7 mph NW10.8 kmh NW 17.4 mph28.0 kmh 29.56 in1001.0 mb 0.04 in1.0 mm 0.00 in0.0 mm 0.09 in2.3 mm
02:25 AM 52.2°F11.2°C 49.3°F9.6°C 90% 5.8 mph NW9.3 kmh NW 12.3 mph19.8 kmh 29.56 in1001.0 mb 0.04 in1.0 mm 0.00 in0.0 mm 0.09 in2.3 mm
02:30 AM 52.2°F11.2°C 49.0°F9.4°C 89% 1.6 mph NW2.6 kmh NW 15.4 mph24.8 kmh 29.56 in1001.0 mb 0.04 in1.0 mm 0.00 in0.0 mm 0.09 in2.3 mm
02:35 AM 52.0°F11.1°C 49.1°F9.5°C 90% 2.0 mph NW3.2 kmh NW 15.4 mph24.8 kmh 29.56 in1001.0 mb 0.04 in1.0 mm 0.00 in0.0 mm 0.09 in2.3 mm
02:40 AM 52.0°F11.1°C 49.1°F9.5°C 90% 6.3 mph NW10.1 kmh NW 9.4 mph15.1 kmh 29.56 in1001.0 mb 0.04 in1.0 mm 0.00 in0.0 mm 0.09 in2.3 mm
02:45 AM 52.0°F11.1°C 49.1°F9.5°C 90% 4.5 mph WNW7.2 kmh WNW 10.5 mph16.9 kmh 29.56 in1001.0 mb 0.04 in1.0 mm 0.00 in0.0 mm 0.09 in2.3 mm
02:50 AM 51.8°F11.0°C 49.0°F9.4°C 90% 4.5 mph W7.2 kmh W 10.5 mph16.9 kmh 29.56 in1001.0 mb 0.04 in1.0 mm 0.00 in0.0 mm 0.09 in2.3 mm
02:55 AM 52.0°F11.1°C 49.1°F9.5°C 90% 4.0 mph WNW6.4 kmh WNW 11.9 mph19.2 kmh 29.56 in1001.0 mb 0.00 in0.0 mm 0.00 in0.0 mm 0.09 in2.3 mm
03:00 AM 51.8°F11.0°C 49.0°F9.4°C 90% 4.5 mph WNW7.2 kmh WNW 11.9 mph19.2 kmh 29.56 in1001.0 mb 0.00 in0.0 mm 0.00 in0.0 mm 0.09 in2.3 mm
03:05 AM 51.8°F11.0°C 49.0°F9.4°C 90% 3.4 mph W5.5 kmh W 8.1 mph13.0 kmh 29.56 in1001.0 mb 0.00 in0.0 mm 0.00 in0.0 mm 0.09 in2.3 mm
03:10 AM 51.6°F10.9°C 48.8°F9.3°C 90% 2.2 mph WSW3.5 kmh WSW 8.1 mph13.0 kmh 29.59 in1002.0 mb 0.00 in0.0 mm 0.00 in0.0 mm 0.09 in2.3 mm
03:15 AM 51.6°F10.9°C 48.8°F9.3°C 90% 2.5 mph W4.0 kmh W 5.8 mph9.3 kmh 29.59 in1002.0 mb 0.00 in0.0 mm 0.00 in0.0 mm 0.09 in2.3 mm
03:20 AM 51.4°F10.8°C 48.6°F9.2°C 90% 4.7 mph NW7.6 kmh NW 10.5 mph16.9 kmh 29.59 in1002.0 mb 0.00 in0.0 mm 0.00 in0.0 mm 0.09 in2.3 mm
03:25 AM 51.4°F10.8°C 48.6°F9.2°C 90% 6.3 mph NW10.1 kmh NW 10.5 mph16.9 kmh 29.56 in1001.0 mb 0.00 in0.0 mm 0.00 in0.0 mm 0.09 in2.3 mm
03:30 AM 51.4°F10.8°C 48.6°F9.2°C 90% 3.1 mph NW5.0 kmh NW 9.6 mph15.4 kmh 29.56 in1001.0 mb 0.00 in0.0 mm 0.00 in0.0 mm 0.09 in2.3 mm
03:35 AM 51.4°F10.8°C 48.6°F9.2°C 90% 6.5 mph WNW10.5 kmh WNW 7.6 mph12.2 kmh 29.56 in1001.0 mb 0.00 in0.0 mm 0.00 in0.0 mm 0.09 in2.3 mm
03:40 AM 51.4°F10.8°C 48.6°F9.2°C 90% 2.5 mph NW4.0 kmh NW 10.7 mph17.2 kmh 29.56 in1001.0 mb 0.00 in0.0 mm 0.00 in0.0 mm 0.09 in2.3 mm
03:45 AM 51.3°F10.7°C 48.4°F9.1°C 90% 3.8 mph NW6.1 kmh NW 10.7 mph17.2 kmh 29.56 in1001.0 mb 0.00 in0.0 mm 0.00 in0.0 mm 0.09 in2.3 mm
03:50 AM 51.3°F10.7°C 48.4°F9.1°C 90% 5.4 mph WNW8.7 kmh WNW 7.8 mph12.6 kmh 29.56 in1001.0 mb 0.00 in0.0 mm 0.00 in0.0 mm 0.09 in2.3 mm
03:55 AM 51.3°F10.7°C 48.4°F9.1°C 90% 3.8 mph WNW6.1 kmh WNW 8.5 mph13.7 kmh 29.59 in1002.0 mb 0.00 in0.0 mm 0.00 in0.0 mm 0.09 in2.3 mm
04:00 AM 51.3°F10.7°C 48.4°F9.1°C 90% 3.6 mph W5.8 kmh W 8.5 mph13.7 kmh 29.59 in1002.0 mb 0.00 in0.0 mm 0.00 in0.0 mm 0.09 in2.3 mm
04:05 AM 51.3°F10.7°C 48.7°F9.3°C 91% Calm Calm 8.1 mph13.0 kmh 29.59 in1002.0 mb 0.00 in0.0 mm 0.00 in0.0 mm 0.09 in2.3 mm
04:10 AM 51.1°F10.6°C 48.2°F9.0°C 90% 4.0 mph WNW6.4 kmh WNW 8.1 mph13.0 kmh 29.59 in1002.0 mb 0.00 in0.0 mm 0.00 in0.0 mm 0.09 in2.3 mm
04:15 AM 51.1°F10.6°C 48.5°F9.2°C 91% 4.7 mph WNW7.6 kmh WNW 8.9 mph14.3 kmh 29.59 in1002.0 mb 0.00 in0.0 mm 0.00 in0.0 mm 0.09 in2.3 mm
04:20 AM 51.1°F10.6°C 48.5°F9.2°C 91% 6.3 mph WNW10.1 kmh WNW 8.9 mph14.3 kmh 29.59 in1002.0 mb 0.00 in0.0 mm 0.00 in0.0 mm 0.09 in2.3 mm
04:25 AM 50.9°F10.5°C 48.4°F9.1°C 91% 4.7 mph WNW7.6 kmh WNW 7.8 mph12.6 kmh 29.59 in1002.0 mb 0.00 in0.0 mm 0.00 in0.0 mm 0.09 in2.3 mm
04:30 AM 50.9°F10.5°C 48.4°F9.1°C 91% 5.6 mph NW9.0 kmh NW 10.1 mph16.3 kmh 29.59 in1002.0 mb 0.00 in0.0 mm 0.00 in0.0 mm 0.09 in2.3 mm
04:35 AM 50.7°F10.4°C 48.2°F9.0°C 91% 4.0 mph WNW6.4 kmh WNW 10.1 mph16.3 kmh 29.59 in1002.0 mb 0.00 in0.0 mm 0.00 in0.0 mm 0.09 in2.3 mm
04:40 AM 50.7°F10.4°C 48.2°F9.0°C 91% 2.7 mph WNW4.3 kmh WNW 7.6 mph12.2 kmh 29.59 in1002.0 mb 0.00 in0.0 mm 0.00 in0.0 mm 0.09 in2.3 mm
04:45 AM 50.5°F10.3°C 48.0°F8.9°C 91% 7.6 mph WNW12.2 kmh WNW 10.3 mph16.6 kmh 29.59 in1002.0 mb 0.00 in0.0 mm 0.00 in0.0 mm 0.09 in2.3 mm
04:50 AM 50.5°F10.3°C 48.0°F8.9°C 91% 6.0 mph NW9.7 kmh NW 10.3 mph16.6 kmh 29.59 in1002.0 mb 0.00 in0.0 mm 0.00 in0.0 mm 0.09 in2.3 mm
04:55 AM 50.5°F10.3°C 48.0°F8.9°C 91% 7.8 mph NW12.6 kmh NW 13.6 mph21.9 kmh 29.59 in1002.0 mb 0.00 in0.0 mm 0.00 in0.0 mm 0.09 in2.3 mm
05:00 AM 50.5°F10.3°C 48.0°F8.9°C 91% 2.9 mph NW4.7 kmh NW 13.6 mph21.9 kmh 29.59 in1002.0 mb 0.00 in0.0 mm 0.00 in0.0 mm 0.09 in2.3 mm
05:05 AM 50.5°F10.3°C 48.0°F8.9°C 91% 4.7 mph NW7.6 kmh NW 12.5 mph20.1 kmh 29.59 in1002.0 mb 0.00 in0.0 mm 0.00 in0.0 mm 0.09 in2.3 mm
05:10 AM 50.4°F10.2°C 47.8°F8.8°C 91% 2.5 mph NW4.0 kmh NW 8.1 mph13.0 kmh 29.56 in1001.0 mb 0.00 in0.0 mm 0.00 in0.0 mm 0.09 in2.3 mm
05:15 AM 50.4°F10.2°C 47.8°F8.8°C 91% 3.8 mph NW6.1 kmh NW 6.3 mph10.1 kmh 29.56 in1001.0 mb 0.00 in0.0 mm 0.00 in0.0 mm 0.09 in2.3 mm
05:20 AM 50.4°F10.2°C 47.8°F8.8°C 91% 3.4 mph NW5.5 kmh NW 6.3 mph10.1 kmh 29.56 in1001.0 mb 0.00 in0.0 mm 0.00 in0.0 mm 0.09 in2.3 mm
05:25 AM 50.4°F10.2°C 47.8°F8.8°C 91% 3.6 mph NW5.8 kmh NW 6.3 mph10.1 kmh 29.56 in1001.0 mb 0.00 in0.0 mm 0.00 in0.0 mm 0.09 in2.3 mm
05:30 AM 50.4°F10.2°C 47.8°F8.8°C 91% 2.9 mph NW4.7 kmh NW 6.3 mph10.1 kmh 29.56 in1001.0 mb 0.00 in0.0 mm 0.00 in0.0 mm 0.09 in2.3 mm
05:35 AM 50.4°F10.2°C 47.8°F8.8°C 91% 3.4 mph NW5.5 kmh NW 7.4 mph11.9 kmh 29.56 in1001.0 mb 0.00 in0.0 mm 0.00 in0.0 mm 0.09 in2.3 mm
05:40 AM 50.4°F10.2°C 48.1°F8.9°C 92% 4.3 mph WNW6.9 kmh WNW 8.7 mph14.0 kmh 29.56 in1001.0 mb 0.00 in0.0 mm 0.00 in0.0 mm 0.09 in2.3 mm
05:45 AM 50.4°F10.2°C 48.1°F8.9°C 92% 3.8 mph WNW6.1 kmh WNW 10.3 mph16.6 kmh 29.56 in1001.0 mb 0.00 in0.0 mm 0.00 in0.0 mm 0.09 in2.3 mm
05:50 AM 50.4°F10.2°C 48.1°F8.9°C 92% 5.4 mph NW8.7 kmh NW 10.3 mph16.6 kmh 29.56 in1001.0 mb 0.00 in0.0 mm 0.00 in0.0 mm 0.09 in2.3 mm
05:55 AM 50.4°F10.2°C 48.1°F8.9°C 92% 4.3 mph NW6.9 kmh NW 8.1 mph13.0 kmh 29.56 in1001.0 mb 0.00 in0.0 mm 0.00 in0.0 mm 0.09 in2.3 mm
06:00 AM 50.4°F10.2°C 47.8°F8.8°C 91% 5.4 mph NW8.7 kmh NW 7.6 mph12.2 kmh 29.56 in1001.0 mb 0.00 in0.0 mm 0.00 in0.0 mm 0.09 in2.3 mm
06:05 AM 50.4°F10.2°C 47.8°F8.8°C 91% 4.3 mph NW6.9 kmh NW 8.1 mph13.0 kmh 29.56 in1001.0 mb 0.00 in0.0 mm 0.00 in0.0 mm 0.09 in2.3 mm
06:10 AM 50.4°F10.2°C 47.8°F8.8°C 91% 3.4 mph NW5.5 kmh NW 8.1 mph13.0 kmh 29.56 in1001.0 mb 0.00 in0.0 mm 0.00 in0.0 mm 0.09 in2.3 mm
06:15 AM 50.4°F10.2°C 47.8°F8.8°C 91% 3.4 mph NW5.5 kmh NW 8.1 mph13.0 kmh 29.56 in1001.0 mb 0.00 in0.0 mm 0.00 in0.0 mm 0.09 in2.3 mm
06:20 AM 50.4°F10.2°C 48.1°F8.9°C 92% 2.0 mph W3.2 kmh W 6.5 mph10.5 kmh 29.56 in1001.0 mb 0.00 in0.0 mm 0.00 in0.0 mm 0.09 in2.3 mm
06:25 AM 50.4°F10.2°C 48.1°F8.9°C 92% 2.2 mph WNW3.5 kmh WNW 8.1 mph13.0 kmh 29.59 in1002.0 mb 0.00 in0.0 mm 0.00 in0.0 mm 0.09 in2.3 mm
06:30 AM 50.4°F10.2°C 48.1°F8.9°C 92% 5.8 mph NW9.3 kmh NW 8.1 mph13.0 kmh 29.59 in1002.0 mb 0.00 in0.0 mm 0.00 in0.0 mm 0.09 in2.3 mm
06:35 AM 50.4°F10.2°C 48.1°F8.9°C 92% 2.5 mph NW4.0 kmh NW 7.4 mph11.9 kmh 29.59 in1002.0 mb 0.00 in0.0 mm 0.00 in0.0 mm 0.09 in2.3 mm
06:40 AM 50.4°F10.2°C 48.1°F8.9°C 92% 3.4 mph WNW5.5 kmh WNW 6.5 mph10.5 kmh 29.59 in1002.0 mb 0.00 in0.0 mm 0.00 in0.0 mm 0.09 in2.3 mm
06:45 AM 50.4°F10.2°C 48.1°F8.9°C 92% Calm Calm 6.5 mph10.5 kmh 29.59 in1002.0 mb 0.00 in0.0 mm 0.00 in0.0 mm 0.09 in2.3 mm
06:50 AM 50.4°F10.2°C 47.8°F8.8°C 91% 1.3 mph WSW2.1 kmh WSW 3.8 mph6.1 kmh 29.59 in1002.0 mb 0.00 in0.0 mm 0.00 in0.0 mm 0.09 in2.3 mm
06:55 AM 50.4°F10.2°C 47.8°F8.8°C 91% 2.9 mph W4.7 kmh W 3.8 mph6.1 kmh 29.59 in1002.0 mb 0.00 in0.0 mm 0.00 in0.0 mm 0.09 in2.3 mm
07:00 AM 50.4°F10.2°C 47.8°F8.8°C 91% 1.1 mph W1.8 kmh W 7.2 mph11.6 kmh 29.59 in1002.0 mb 0.00 in0.0 mm 0.00 in0.0 mm 0.09 in2.3 mm
07:05 AM 50.4°F10.2°C 47.8°F8.8°C 91% 4.0 mph W6.4 kmh W 7.2 mph11.6 kmh 29.59 in1002.0 mb 0.00 in0.0 mm 0.00 in0.0 mm 0.09 in2.3 mm
07:10 AM 50.4°F10.2°C 47.8°F8.8°C 91% 3.1 mph WNW5.0 kmh WNW 6.0 mph9.7 kmh 29.59 in1002.0 mb 0.00 in0.0 mm 0.00 in0.0 mm 0.09 in2.3 mm
07:15 AM 50.4°F10.2°C 47.8°F8.8°C 91% 2.5 mph WNW4.0 kmh WNW 5.8 mph9.3 kmh 29.59 in1002.0 mb 0.00 in0.0 mm 0.00 in0.0 mm 0.09 in2.3 mm
07:20 AM 50.4°F10.2°C 47.8°F8.8°C 91% 1.6 mph W2.6 kmh W 3.1 mph5.0 kmh 29.59 in1002.0 mb 0.00 in0.0 mm 0.00 in0.0 mm 0.09 in2.3 mm
07:25 AM 50.4°F10.2°C 47.8°F8.8°C 91% 2.2 mph W3.5 kmh W 3.4 mph5.5 kmh 29.59 in1002.0 mb 0.00 in0.0 mm 0.00 in0.0 mm 0.09 in2.3 mm
07:30 AM 50.2°F10.1°C 47.7°F8.7°C 91% 2.5 mph WSW4.0 kmh WSW 3.6 mph5.8 kmh 29.59 in1002.0 mb 0.00 in0.0 mm 0.00 in0.0 mm 0.09 in2.3 mm
07:35 AM 50.2°F10.1°C 47.7°F8.7°C 91% 2.0 mph WSW3.2 kmh WSW 3.6 mph5.8 kmh 29.59 in1002.0 mb 0.00 in0.0 mm 0.00 in0.0 mm 0.09 in2.3 mm
07:40 AM 50.2°F10.1°C 47.7°F8.7°C 91% 3.4 mph WSW5.5 kmh WSW 3.8 mph6.1 kmh 29.59 in1002.0 mb 0.00 in0.0 mm 0.00 in0.0 mm 0.09 in2.3 mm
07:45 AM 50.2°F10.1°C 47.7°F8.7°C 91% 2.2 mph WSW3.5 kmh WSW 3.8 mph6.1 kmh 29.59 in1002.0 mb 0.00 in0.0 mm 0.00 in0.0 mm 0.09 in2.3 mm
07:50 AM 50.2°F10.1°C 47.7°F8.7°C 91% 3.6 mph WSW5.8 kmh WSW 4.0 mph6.4 kmh 29.59 in1002.0 mb 0.00 in0.0 mm 0.00 in0.0 mm 0.09 in2.3 mm
07:55 AM 50.2°F10.1°C 47.7°F8.7°C 91% 3.1 mph WSW5.0 kmh WSW 4.0 mph6.4 kmh 29.59 in1002.0 mb 0.00 in0.0 mm 0.00 in0.0 mm 0.09 in2.3 mm
08:00 AM 50.2°F10.1°C 47.7°F8.7°C 91% 2.5 mph WSW4.0 kmh WSW 4.0 mph6.4 kmh 29.59 in1002.0 mb 0.00 in0.0 mm 0.00 in0.0 mm 0.09 in2.3 mm
08:05 AM 50.2°F10.1°C 47.7°F8.7°C 91% 1.6 mph WSW2.6 kmh WSW 4.0 mph6.4 kmh 29.59 in1002.0 mb 0.00 in0.0 mm 0.00 in0.0 mm 0.09 in2.3 mm
08:10 AM 50.2°F10.1°C 47.7°F8.7°C 91% 1.3 mph WSW2.1 kmh WSW 4.0 mph6.4 kmh 29.59 in1002.0 mb 0.00 in0.0 mm 0.00 in0.0 mm 0.09 in2.3 mm
08:15 AM 50.2°F10.1°C 47.7°F8.7°C 91% 2.2 mph WSW3.5 kmh WSW 5.8 mph9.3 kmh 29.59 in1002.0 mb 0.00 in0.0 mm 0.00 in0.0 mm 0.09 in2.3 mm
08:20 AM 50.2°F10.1°C 47.7°F8.7°C 91% 6.3 mph W10.1 kmh W 7.8 mph12.6 kmh 29.59 in1002.0 mb 0.00 in0.0 mm 0.00 in0.0 mm 0.09 in2.3 mm
08:25 AM 50.4°F10.2°C 47.8°F8.8°C 91% 3.1 mph W5.0 kmh W 7.8 mph12.6 kmh 29.59 in1002.0 mb 0.00 in0.0 mm 0.00 in0.0 mm 0.09 in2.3 mm
08:30 AM 50.5°F10.3°C 48.0°F8.9°C 91% 2.7 mph W4.3 kmh W 7.8 mph12.6 kmh 29.59 in1002.0 mb 0.00 in0.0 mm 0.00 in0.0 mm 0.09 in2.3 mm
08:35 AM 50.4°F10.2°C 47.5°F8.6°C 90% 0.9 mph SW1.4 kmh SW 6.7 mph10.8 kmh 29.59 in1002.0 mb 0.00 in0.0 mm 0.00 in0.0 mm 0.09 in2.3 mm
08:40 AM 50.4°F10.2°C 47.5°F8.6°C 90% 2.0 mph SW3.2 kmh SW 6.7 mph10.8 kmh 29.56 in1001.0 mb 0.04 in1.0 mm 0.48 in12.2 mm 0.13 in3.3 mm
08:45 AM 50.4°F10.2°C 47.5°F8.6°C 90% 2.2 mph W3.5 kmh W 6.5 mph10.5 kmh 29.56 in1001.0 mb 0.04 in1.0 mm 0.00 in0.0 mm 0.13 in3.3 mm
08:50 AM 50.4°F10.2°C 47.5°F8.6°C 90% 2.5 mph W4.0 kmh W 6.5 mph10.5 kmh 29.56 in1001.0 mb 0.04 in1.0 mm 0.00 in0.0 mm 0.13 in3.3 mm
08:55 AM 50.2°F10.1°C 47.4°F8.6°C 90% 5.6 mph WNW9.0 kmh WNW 6.7 mph10.8 kmh 29.59 in1002.0 mb 0.04 in1.0 mm 0.00 in0.0 mm 0.13 in3.3 mm
09:00 AM 50.4°F10.2°C 47.5°F8.6°C 90% 2.0 mph W3.2 kmh W 6.7 mph10.8 kmh 29.59 in1002.0 mb 0.04 in1.0 mm 0.00 in0.0 mm 0.13 in3.3 mm
09:05 AM 50.4°F10.2°C 47.5°F8.6°C 90% 1.6 mph WSW2.6 kmh WSW 6.7 mph10.8 kmh 29.59 in1002.0 mb 0.04 in1.0 mm 0.00 in0.0 mm 0.13 in3.3 mm
09:10 AM 50.2°F10.1°C 47.4°F8.6°C 90% 1.1 mph SW1.8 kmh SW 2.9 mph4.7 kmh 29.59 in1002.0 mb 0.08 in2.0 mm 0.48 in12.2 mm 0.17 in4.3 mm
09:15 AM 50.2°F10.1°C 47.4°F8.6°C 90% 0.9 mph WSW1.4 kmh WSW 3.8 mph6.1 kmh 29.59 in1002.0 mb 0.08 in2.0 mm 0.00 in0.0 mm 0.17 in4.3 mm
09:20 AM 50.2°F10.1°C 47.4°F8.6°C 90% 2.0 mph W3.2 kmh W 5.4 mph8.7 kmh 29.59 in1002.0 mb 0.08 in2.0 mm 0.00 in0.0 mm 0.17 in4.3 mm
09:25 AM 50.2°F10.1°C 47.4°F8.6°C 90% 1.6 mph WSW2.6 kmh WSW 5.4 mph8.7 kmh 29.59 in1002.0 mb 0.12 in3.0 mm 0.48 in12.2 mm 0.21 in5.3 mm
09:30 AM 50.2°F10.1°C 47.4°F8.6°C 90% 2.7 mph WSW4.3 kmh WSW 3.6 mph5.8 kmh 29.59 in1002.0 mb 0.12 in3.0 mm 0.00 in0.0 mm 0.21 in5.3 mm
09:35 AM 50.2°F10.1°C 47.7°F8.7°C 91% 2.2 mph WSW3.5 kmh WSW 3.6 mph5.8 kmh 29.59 in1002.0 mb 0.12 in3.0 mm 0.00 in0.0 mm 0.21 in5.3 mm
09:40 AM 50.2°F10.1°C 47.7°F8.7°C 91% 2.7 mph WSW4.3 kmh WSW 3.6 mph5.8 kmh 29.59 in1002.0 mb 0.08 in2.0 mm 0.00 in0.0 mm 0.21 in5.3 mm
09:45 AM 50.2°F10.1°C 47.7°F8.7°C 91% 1.3 mph WSW2.1 kmh WSW 3.1 mph5.0 kmh 29.59 in1002.0 mb 0.08 in2.0 mm 0.00 in0.0 mm 0.21 in5.3 mm
09:50 AM 50.2°F10.1°C 47.7°F8.7°C 91% 2.5 mph WSW4.0 kmh WSW 3.4 mph5.5 kmh 29.59 in1002.0 mb 0.08 in2.0 mm 0.00 in0.0 mm 0.21 in5.3 mm
09:55 AM 50.2°F10.1°C 47.7°F8.7°C 91% 1.3 mph SW2.1 kmh SW 3.6 mph5.8 kmh 29.59 in1002.0 mb 0.08 in2.0 mm 0.00 in0.0 mm 0.21 in5.3 mm
10:00 AM 50.4°F10.2°C 47.8°F8.8°C 91% 2.5 mph WSW4.0 kmh WSW 3.6 mph5.8 kmh 29.59 in1002.0 mb 0.08 in2.0 mm 0.00 in0.0 mm 0.21 in5.3 mm
10:05 AM 50.5°F10.3°C 48.0°F8.9°C 91% 1.3 mph WSW2.1 kmh WSW 3.6 mph5.8 kmh 29.59 in1002.0 mb 0.08 in2.0 mm 0.00 in0.0 mm 0.21 in5.3 mm
10:10 AM 50.9°F10.5°C 48.4°F9.1°C 91% 2.9 mph WSW4.7 kmh WSW 3.8 mph6.1 kmh 29.59 in1002.0 mb 0.04 in1.0 mm 0.00 in0.0 mm 0.21 in5.3 mm
10:15 AM 51.1°F10.6°C 48.8°F9.3°C 92% 2.0 mph W3.2 kmh W 6.5 mph10.5 kmh 29.59 in1002.0 mb 0.04 in1.0 mm 0.00 in0.0 mm 0.21 in5.3 mm
10:20 AM 51.1°F10.6°C 48.5°F9.2°C 91% 2.5 mph W4.0 kmh W 6.5 mph10.5 kmh 29.59 in1002.0 mb 0.04 in1.0 mm 0.00 in0.0 mm 0.21 in5.3 mm
10:25 AM 51.1°F10.6°C 48.5°F9.2°C 91% 4.3 mph W6.9 kmh W 5.8 mph9.3 kmh 29.62 in1003.0 mb 0.00 in0.0 mm 0.00 in0.0 mm 0.21 in5.3 mm
10:30 AM 51.1°F10.6°C 48.2°F9.0°C 90% 4.5 mph WNW7.2 kmh WNW 8.5 mph13.7 kmh 29.62 in1003.0 mb 0.05 in1.3 mm 0.60 in15.2 mm 0.26 in6.6 mm
10:35 AM 51.3°F10.7°C 48.1°F8.9°C 89% 4.5 mph NW7.2 kmh NW 8.5 mph13.7 kmh 29.62 in1003.0 mb 0.05 in1.3 mm 0.00 in0.0 mm 0.26 in6.6 mm
10:40 AM 51.3°F10.7°C 48.1°F8.9°C 89% 4.9 mph WNW7.9 kmh WNW 7.6 mph12.2 kmh 29.62 in1003.0 mb 0.05 in1.3 mm 0.00 in0.0 mm 0.26 in6.6 mm
10:45 AM 51.1°F10.6°C 48.0°F8.9°C 89% 7.4 mph W11.9 kmh W 9.2 mph14.8 kmh 29.62 in1003.0 mb 0.05 in1.3 mm 0.00 in0.0 mm 0.26 in6.6 mm
10:50 AM 51.1°F10.6°C 47.6°F8.7°C 88% 2.5 mph NW4.0 kmh NW 9.4 mph15.1 kmh 29.62 in1003.0 mb 0.05 in1.3 mm 0.00 in0.0 mm 0.26 in6.6 mm
10:55 AM 51.3°F10.7°C 47.8°F8.8°C 88% 4.3 mph NW6.9 kmh NW 9.4 mph15.1 kmh 29.62 in1003.0 mb 0.05 in1.3 mm 0.00 in0.0 mm 0.26 in6.6 mm
11:00 AM 51.4°F10.8°C 48.3°F9.1°C 89% Calm Calm 5.4 mph8.7 kmh 29.62 in1003.0 mb 0.05 in1.3 mm 0.00 in0.0 mm 0.26 in6.6 mm
11:05 AM 51.6°F10.9°C 48.5°F9.2°C 89% 4.5 mph WNW7.2 kmh WNW 6.3 mph10.1 kmh 29.62 in1003.0 mb 0.05 in1.3 mm 0.00 in0.0 mm 0.26 in6.6 mm
11:10 AM 52.0°F11.1°C 48.5°F9.2°C 88% 4.5 mph NW7.2 kmh NW 8.1 mph13.0 kmh 29.62 in1003.0 mb 0.05 in1.3 mm 0.00 in0.0 mm 0.26 in6.6 mm
11:15 AM 52.0°F11.1°C 47.9°F8.8°C 86% 1.1 mph NW1.8 kmh NW 8.1 mph13.0 kmh 29.62 in1003.0 mb 0.05 in1.3 mm 0.00 in0.0 mm 0.26 in6.6 mm
11:20 AM 52.0°F11.1°C 47.6°F8.7°C 85% 2.7 mph NW4.3 kmh NW 6.5 mph10.5 kmh 29.62 in1003.0 mb 0.05 in1.3 mm 0.00 in0.0 mm 0.26 in6.6 mm
11:25 AM 52.0°F11.1°C 47.6°F8.7°C 85% 2.0 mph NW3.2 kmh NW 6.5 mph10.5 kmh 29.62 in1003.0 mb 0.05 in1.3 mm 0.00 in0.0 mm 0.26 in6.6 mm
11:30 AM 52.0°F11.1°C 47.6°F8.7°C 85% 2.7 mph WNW4.3 kmh WNW 5.8 mph9.3 kmh 29.62 in1003.0 mb 0.00 in0.0 mm 0.00 in0.0 mm 0.26 in6.6 mm
11:35 AM 52.2°F11.2°C 47.8°F8.8°C 85% 1.6 mph W2.6 kmh W 5.8 mph9.3 kmh 29.62 in1003.0 mb 0.00 in0.0 mm 0.00 in0.0 mm 0.26 in6.6 mm
11:40 AM 52.2°F11.2°C 47.8°F8.8°C 85% 2.0 mph WNW3.2 kmh WNW 4.3 mph6.9 kmh 29.62 in1003.0 mb 0.00 in0.0 mm 0.00 in0.0 mm 0.26 in6.6 mm
11:45 AM 52.2°F11.2°C 47.8°F8.8°C 85% 1.3 mph WNW2.1 kmh WNW 5.6 mph9.0 kmh 29.62 in1003.0 mb 0.00 in0.0 mm 0.00 in0.0 mm 0.26 in6.6 mm
11:50 AM 52.2°F11.2°C 47.5°F8.6°C 84% 2.5 mph W4.0 kmh W 5.6 mph9.0 kmh 29.62 in1003.0 mb 0.00 in0.0 mm 0.00 in0.0 mm 0.26 in6.6 mm
11:55 AM 52.2°F11.2°C 47.5°F8.6°C 84% 3.1 mph NW5.0 kmh NW 6.5 mph10.5 kmh 29.62 in1003.0 mb 0.00 in0.0 mm 0.00 in0.0 mm 0.26 in6.6 mm
12:00 PM 52.3°F11.3°C 47.3°F8.5°C 83% 2.9 mph NW4.7 kmh NW 6.5 mph10.5 kmh 29.62 in1003.0 mb 0.00 in0.0 mm 0.00 in0.0 mm 0.26 in6.6 mm
12:05 PM 52.2°F11.2°C 47.2°F8.4°C 83% 0.9 mph NW1.4 kmh NW 5.8 mph9.3 kmh 29.62 in1003.0 mb 0.00 in0.0 mm 0.00 in0.0 mm 0.26 in6.6 mm
12:10 PM 52.2°F11.2°C 47.2°F8.4°C 83% 2.0 mph W3.2 kmh W 5.8 mph9.3 kmh 29.62 in1003.0 mb 0.00 in0.0 mm 0.00 in0.0 mm 0.26 in6.6 mm
12:15 PM 52.2°F11.2°C 47.2°F8.4°C 83% Calm Calm 4.0 mph6.4 kmh 29.62 in1003.0 mb 0.00 in0.0 mm 0.00 in0.0 mm 0.26 in6.6 mm
12:20 PM 52.0°F11.1°C 47.3°F8.5°C 84% 3.6 mph NW5.8 kmh NW 4.9 mph7.9 kmh 29.62 in1003.0 mb 0.00 in0.0 mm 0.00 in0.0 mm 0.26 in6.6 mm
12:25 PM 52.0°F11.1°C 47.3°F8.5°C 84% 0.9 mph NW1.4 kmh NW 4.9 mph7.9 kmh 29.62 in1003.0 mb 0.03 in0.8 mm 0.36 in9.1 mm 0.29 in7.4 mm
12:30 PM 52.0°F11.1°C 47.3°F8.5°C 84% 3.4 mph WSW5.5 kmh WSW 7.8 mph12.6 kmh 29.62 in1003.0 mb 0.03 in0.8 mm 0.00 in0.0 mm 0.29 in7.4 mm
12:35 PM 52.0°F11.1°C 47.3°F8.5°C 84% 2.0 mph WSW3.2 kmh WSW 7.8 mph12.6 kmh 29.62 in1003.0 mb 0.03 in0.8 mm 0.00 in0.0 mm 0.29 in7.4 mm
12:40 PM 52.0°F11.1°C 47.3°F8.5°C 84% 1.3 mph NW2.1 kmh NW 4.0 mph6.4 kmh 29.62 in1003.0 mb 0.03 in0.8 mm 0.00 in0.0 mm 0.29 in7.4 mm
12:45 PM 52.0°F11.1°C 47.3°F8.5°C 84% Calm Calm 3.6 mph5.8 kmh 29.62 in1003.0 mb 0.03 in0.8 mm 0.00 in0.0 mm 0.29 in7.4 mm
12:50 PM 52.2°F11.2°C 47.5°F8.6°C 84% Calm Calm 2.2 mph3.5 kmh 29.62 in1003.0 mb 0.03 in0.8 mm 0.00 in0.0 mm 0.29 in7.4 mm
12:55 PM 52.2°F11.2°C 47.5°F8.6°C 84% 1.6 mph NW2.6 kmh NW 2.7 mph4.3 kmh 29.62 in1003.0 mb 0.03 in0.8 mm 0.00 in0.0 mm 0.29 in7.4 mm
01:00 PM 52.2°F11.2°C 47.5°F8.6°C 84% 1.1 mph NW1.8 kmh NW 3.1 mph5.0 kmh 29.62 in1003.0 mb 0.03 in0.8 mm 0.00 in0.0 mm 0.29 in7.4 mm
01:05 PM 52.0°F11.1°C 47.3°F8.5°C 84% 0.9 mph NW1.4 kmh NW 3.4 mph5.5 kmh 29.62 in1003.0 mb 0.03 in0.8 mm 0.00 in0.0 mm 0.29 in7.4 mm
01:10 PM 52.2°F11.2°C 47.5°F8.6°C 84% 3.1 mph NW5.0 kmh NW 3.8 mph6.1 kmh 29.62 in1003.0 mb 0.03 in0.8 mm 0.00 in0.0 mm 0.29 in7.4 mm
01:15 PM 52.3°F11.3°C 48.0°F8.9°C 85% 2.2 mph NW3.5 kmh NW 3.8 mph6.1 kmh 29.62 in1003.0 mb 0.03 in0.8 mm 0.00 in0.0 mm 0.29 in7.4 mm
01:20 PM 52.3°F11.3°C 48.0°F8.9°C 85% Calm Calm 3.8 mph6.1 kmh 29.62 in1003.0 mb 0.03 in0.8 mm 0.00 in0.0 mm 0.29 in7.4 mm
01:25 PM 52.3°F11.3°C 48.0°F8.9°C 85% 1.6 mph W2.6 kmh W 4.3 mph6.9 kmh 29.62 in1003.0 mb 0.00 in0.0 mm 0.00 in0.0 mm 0.29 in7.4 mm
01:30 PM 52.5°F11.4°C 48.1°F8.9°C 85% 4.5 mph NW7.2 kmh NW 7.6 mph12.2 kmh 29.62 in1003.0 mb 0.00 in0.0 mm 0.00 in0.0 mm 0.29 in7.4 mm
01:35 PM 52.7°F11.5°C 48.0°F8.9°C 84% 2.7 mph WNW4.3 kmh WNW 7.6 mph12.2 kmh 29.62 in1003.0 mb 0.00 in0.0 mm 0.00 in0.0 mm 0.29 in7.4 mm
01:40 PM 52.9°F11.6°C 48.2°F9.0°C 84% 2.0 mph WNW3.2 kmh WNW 5.8 mph9.3 kmh 29.62 in1003.0 mb 0.00 in0.0 mm 0.00 in0.0 mm 0.29 in7.4 mm
01:45 PM 53.1°F11.7°C 48.4°F9.1°C 84% 2.9 mph WNW4.7 kmh WNW 5.8 mph9.3 kmh 29.62 in1003.0 mb 0.00 in0.0 mm 0.00 in0.0 mm 0.29 in7.4 mm
01:50 PM 53.1°F11.7°C 48.4°F9.1°C 84% 6.3 mph WNW10.1 kmh WNW 8.7 mph14.0 kmh 29.62 in1003.0 mb 0.00 in0.0 mm 0.00 in0.0 mm 0.29 in7.4 mm
01:55 PM 53.1°F11.7°C 48.0°F8.9°C 83% 1.1 mph WNW1.8 kmh WNW 8.7 mph14.0 kmh 29.62 in1003.0 mb 0.00 in0.0 mm 0.00 in0.0 mm 0.29 in7.4 mm
02:00 PM 53.2°F11.8°C 47.9°F8.8°C 82% 2.9 mph W4.7 kmh W 6.9 mph11.1 kmh 29.62 in1003.0 mb 0.00 in0.0 mm 0.00 in0.0 mm 0.29 in7.4 mm
02:05 PM 53.1°F11.7°C 47.7°F8.7°C 82% 4.9 mph WSW7.9 kmh WSW 6.9 mph11.1 kmh 29.62 in1003.0 mb 0.00 in0.0 mm 0.00 in0.0 mm 0.29 in7.4 mm
02:10 PM 53.1°F11.7°C 47.7°F8.7°C 82% Calm Calm 6.9 mph11.1 kmh 29.62 in1003.0 mb 0.00 in0.0 mm 0.00 in0.0 mm 0.29 in7.4 mm
02:15 PM 53.1°F11.7°C 48.0°F8.9°C 83% 2.5 mph WNW4.0 kmh WNW 5.8 mph9.3 kmh 29.62 in1003.0 mb 0.00 in0.0 mm 0.00 in0.0 mm 0.29 in7.4 mm
02:20 PM 53.1°F11.7°C 48.0°F8.9°C 83% 0.9 mph W1.4 kmh W 3.8 mph6.1 kmh 29.62 in1003.0 mb 0.00 in0.0 mm 0.00 in0.0 mm 0.29 in7.4 mm
02:25 PM 53.1°F11.7°C 48.0°F8.9°C 83% 2.2 mph WSW3.5 kmh WSW 3.6 mph5.8 kmh 29.62 in1003.0 mb 0.00 in0.0 mm 0.00 in0.0 mm 0.29 in7.4 mm
02:30 PM 53.2°F11.8°C 48.2°F9.0°C 83% 0.9 mph WSW1.4 kmh WSW 4.0 mph6.4 kmh 29.62 in1003.0 mb 0.00 in0.0 mm 0.00 in0.0 mm 0.29 in7.4 mm
02:35 PM 53.2°F11.8°C 48.2°F9.0°C 83% 2.5 mph WNW4.0 kmh WNW 4.0 mph6.4 kmh 29.62 in1003.0 mb 0.00 in0.0 mm 0.00 in0.0 mm 0.29 in7.4 mm
02:40 PM 53.2°F11.8°C 48.2°F9.0°C 83% Calm Calm 3.1 mph5.0 kmh 29.62 in1003.0 mb 0.00 in0.0 mm 0.00 in0.0 mm 0.29 in7.4 mm
02:45 PM 53.4°F11.9°C 48.7°F9.3°C 84% Calm Calm 2.0 mph3.2 kmh 29.62 in1003.0 mb 0.00 in0.0 mm 0.00 in0.0 mm 0.29 in7.4 mm
02:50 PM 53.4°F11.9°C 48.7°F9.3°C 84% 2.0 mph NW3.2 kmh NW 2.7 mph4.3 kmh 29.62 in1003.0 mb 0.00 in0.0 mm 0.00 in0.0 mm 0.29 in7.4 mm
02:55 PM 53.4°F11.9°C 48.4°F9.1°C 83% 0.9 mph NW1.4 kmh NW 2.7 mph4.3 kmh 29.62 in1003.0 mb 0.00 in0.0 mm 0.00 in0.0 mm 0.29 in7.4 mm
03:00 PM 53.2°F11.8°C 48.2°F9.0°C 83% 1.3 mph NNW2.1 kmh NNW 3.4 mph5.5 kmh 29.62 in1003.0 mb 0.00 in0.0 mm 0.00 in0.0 mm 0.29 in7.4 mm
03:05 PM 53.2°F11.8°C 48.2°F9.0°C 83% 2.5 mph NW4.0 kmh NW 3.4 mph5.5 kmh 29.62 in1003.0 mb 0.00 in0.0 mm 0.00 in0.0 mm 0.29 in7.4 mm
03:10 PM 53.2°F11.8°C 48.5°F9.2°C 84% 1.1 mph WNW1.8 kmh WNW 3.4 mph5.5 kmh 29.62 in1003.0 mb 0.00 in0.0 mm 0.00 in0.0 mm 0.29 in7.4 mm
03:15 PM 53.2°F11.8°C 48.5°F9.2°C 84% Calm Calm 3.6 mph5.8 kmh 29.62 in1003.0 mb 0.00 in0.0 mm 0.00 in0.0 mm 0.29 in7.4 mm
03:20 PM 53.4°F11.9°C 48.7°F9.3°C 84% 2.0 mph WNW3.2 kmh WNW 3.6 mph5.8 kmh 29.62 in1003.0 mb 0.00 in0.0 mm 0.00 in0.0 mm 0.29 in7.4 mm
03:25 PM 53.4°F11.9°C 48.7°F9.3°C 84% 1.1 mph WNW1.8 kmh WNW 3.1 mph5.0 kmh 29.62 in1003.0 mb 0.00 in0.0 mm 0.00 in0.0 mm 0.29 in7.4 mm
03:30 PM 53.4°F11.9°C 49.0°F9.4°C 85% Calm Calm 3.1 mph5.0 kmh 29.62 in1003.0 mb 0.00 in0.0 mm 0.00 in0.0 mm 0.29 in7.4 mm
03:35 PM 53.2°F11.8°C 48.8°F9.3°C 85% 2.5 mph W4.0 kmh W 3.8 mph6.1 kmh 29.62 in1003.0 mb 0.00 in0.0 mm 0.00 in0.0 mm 0.29 in7.4 mm
03:40 PM 53.1°F11.7°C 48.4°F9.1°C 84% 0.9 mph W1.4 kmh W 5.6 mph9.0 kmh 29.62 in1003.0 mb 0.00 in0.0 mm 0.00 in0.0 mm 0.29 in7.4 mm
03:45 PM 53.1°F11.7°C 48.4°F9.1°C 84% 0.9 mph WNW1.4 kmh WNW 5.6 mph9.0 kmh 29.62 in1003.0 mb 0.00 in0.0 mm 0.00 in0.0 mm 0.29 in7.4 mm
03:50 PM 53.1°F11.7°C 48.4°F9.1°C 84% 1.1 mph WNW1.8 kmh WNW 4.7 mph7.6 kmh 29.62 in1003.0 mb 0.00 in0.0 mm 0.00 in0.0 mm 0.29 in7.4 mm
03:55 PM 53.2°F11.8°C 48.8°F9.3°C 85% Calm Calm 4.0 mph6.4 kmh 29.62 in1003.0 mb 0.00 in0.0 mm 0.00 in0.0 mm 0.29 in7.4 mm
04:00 PM 53.2°F11.8°C 48.8°F9.3°C 85% 3.1 mph W5.0 kmh W 5.4 mph8.7 kmh 29.62 in1003.0 mb 0.00 in0.0 mm 0.00 in0.0 mm 0.29 in7.4 mm
04:05 PM 53.2°F11.8°C 48.5°F9.2°C 84% 1.1 mph WNW1.8 kmh WNW 5.4 mph8.7 kmh 29.62 in1003.0 mb 0.00 in0.0 mm 0.00 in0.0 mm 0.29 in7.4 mm
04:10 PM 53.2°F11.8°C 48.5°F9.2°C 84% 2.5 mph WNW4.0 kmh WNW 3.1 mph5.0 kmh 29.62 in1003.0 mb 0.00 in0.0 mm 0.00 in0.0 mm 0.29 in7.4 mm
04:15 PM 53.2°F11.8°C 48.5°F9.2°C 84% Calm Calm 2.9 mph4.7 kmh 29.62 in1003.0 mb 0.00 in0.0 mm 0.00 in0.0 mm 0.29 in7.4 mm
04:20 PM 53.2°F11.8°C 48.5°F9.2°C 84% Calm Calm 2.0 mph3.2 kmh 29.62 in1003.0 mb 0.00 in0.0 mm 0.00 in0.0 mm 0.29 in7.4 mm
04:25 PM 53.2°F11.8°C 48.5°F9.2°C 84% Calm Calm -- 29.62 in1003.0 mb 0.00 in0.0 mm 0.00 in0.0 mm 0.29 in7.4 mm
04:30 PM 53.2°F11.8°C 48.5°F9.2°C 84% Calm Calm -- 29.62 in1003.0 mb 0.00 in0.0 mm 0.00 in0.0 mm 0.29 in7.4 mm
04:35 PM 53.2°F11.8°C 48.8°F9.3°C 85% Calm Calm -- 29.62 in1003.0 mb 0.00 in0.0 mm 0.00 in0.0 mm 0.29 in7.4 mm
04:40 PM 53.2°F11.8°C 48.8°F9.3°C 85% Calm Calm -- 29.59 in1002.0 mb 0.00 in0.0 mm 0.00 in0.0 mm 0.29 in7.4 mm
04:45 PM 53.1°F11.7°C 48.7°F9.3°C 85% Calm Calm -- 29.59 in1002.0 mb 0.00 in0.0 mm 0.00 in0.0 mm 0.29 in7.4 mm
04:50 PM 53.1°F11.7°C 48.7°F9.3°C 85% Calm Calm -- 29.59 in1002.0 mb 0.00 in0.0 mm 0.00 in0.0 mm 0.29 in7.4 mm
04:55 PM 53.1°F11.7°C 49.0°F9.4°C 86% Calm Calm -- 29.59 in1002.0 mb 0.00 in0.0 mm 0.00 in0.0 mm 0.29 in7.4 mm
05:00 PM 53.1°F11.7°C 49.0°F9.4°C 86% Calm Calm -- 29.59 in1002.0 mb 0.00 in0.0 mm 0.00 in0.0 mm 0.29 in7.4 mm
05:05 PM 53.1°F11.7°C 49.0°F9.4°C 86% Calm Calm -- 29.59 in1002.0 mb 0.00 in0.0 mm 0.00 in0.0 mm 0.29 in7.4 mm
05:10 PM 52.9°F11.6°C 48.8°F9.3°C 86% Calm Calm -- 29.59 in1002.0 mb 0.00 in0.0 mm 0.00 in0.0 mm 0.29 in7.4 mm
05:15 PM 52.9°F11.6°C 48.8°F9.3°C 86% Calm Calm -- 29.59 in1002.0 mb 0.00 in0.0 mm 0.00 in0.0 mm 0.29 in7.4 mm
05:20 PM 52.9°F11.6°C 48.8°F9.3°C 86% Calm Calm -- 29.59 in1002.0 mb 0.00 in0.0 mm 0.00 in0.0 mm 0.29 in7.4 mm
05:25 PM 52.7°F11.5°C 48.6°F9.2°C 86% Calm Calm -- 29.59 in1002.0 mb 0.00 in0.0 mm 0.00 in0.0 mm 0.29 in7.4 mm
05:30 PM 52.5°F11.4°C 48.8°F9.3°C 87% Calm Calm 1.1 mph1.8 kmh 29.59 in1002.0 mb 0.00 in0.0 mm 0.00 in0.0 mm 0.29 in7.4 mm
05:35 PM 52.5°F11.4°C 48.8°F9.3°C 87% Calm Calm 1.1 mph1.8 kmh 29.59 in1002.0 mb 0.00 in0.0 mm 0.00 in0.0 mm 0.29 in7.4 mm
05:40 PM 52.3°F11.3°C 48.6°F9.2°C 87% Calm Calm -- 29.62 in1003.0 mb 0.00 in0.0 mm 0.00 in0.0 mm 0.29 in7.4 mm
05:45 PM 52.2°F11.2°C 48.4°F9.1°C 87% Calm Calm 2.0 mph3.2 kmh 29.62 in1003.0 mb 0.00 in0.0 mm 0.00 in0.0 mm 0.29 in7.4 mm
05:50 PM 52.2°F11.2°C 48.4°F9.1°C 87% Calm Calm 2.0 mph3.2 kmh 29.62 in1003.0 mb 0.00 in0.0 mm 0.00 in0.0 mm 0.29 in7.4 mm
05:55 PM 52.0°F11.1°C 48.2°F9.0°C 87% Calm Calm -- 29.62 in1003.0 mb 0.00 in0.0 mm 0.00 in0.0 mm 0.29 in7.4 mm
06:00 PM 51.8°F11.0°C 48.1°F8.9°C 87% Calm Calm -- 29.62 in1003.0 mb 0.00 in0.0 mm 0.00 in0.0 mm 0.29 in7.4 mm
06:05 PM 51.6°F10.9°C 48.2°F9.0°C 88% Calm Calm -- 29.62 in1003.0 mb 0.05 in1.3 mm 0.60 in15.2 mm 0.34 in8.6 mm
06:10 PM 51.6°F10.9°C 48.2°F9.0°C 88% Calm Calm -- 29.62 in1003.0 mb 0.05 in1.3 mm 0.00 in0.0 mm 0.34 in8.6 mm
06:15 PM 51.4°F10.8°C 48.0°F8.9°C 88% Calm Calm -- 29.62 in1003.0 mb 0.05 in1.3 mm 0.00 in0.0 mm 0.34 in8.6 mm
06:20 PM 51.4°F10.8°C 48.0°F8.9°C 88% 0.9 mph NW1.4 kmh NW 1.6 mph2.6 kmh 29.62 in1003.0 mb 0.05 in1.3 mm 0.00 in0.0 mm 0.34 in8.6 mm
06:25 PM 51.1°F10.6°C 47.6°F8.7°C 88% 2.5 mph WNW4.0 kmh WNW 2.7 mph4.3 kmh 29.62 in1003.0 mb 0.05 in1.3 mm 0.00 in0.0 mm 0.34 in8.6 mm
06:30 PM 50.9°F10.5°C 47.5°F8.6°C 88% Calm Calm 2.7 mph4.3 kmh 29.62 in1003.0 mb 0.05 in1.3 mm 0.00 in0.0 mm 0.34 in8.6 mm
06:35 PM 50.9°F10.5°C 47.5°F8.6°C 88% Calm Calm 2.7 mph4.3 kmh 29.62 in1003.0 mb 0.05 in1.3 mm 0.00 in0.0 mm 0.34 in8.6 mm
06:40 PM 50.7°F10.4°C 47.3°F8.5°C 88% Calm Calm 2.9 mph4.7 kmh 29.62 in1003.0 mb 0.05 in1.3 mm 0.00 in0.0 mm 0.34 in8.6 mm
06:45 PM 50.7°F10.4°C 47.3°F8.5°C 88% Calm Calm 2.9 mph4.7 kmh 29.62 in1003.0 mb 0.05 in1.3 mm 0.00 in0.0 mm 0.34 in8.6 mm
06:50 PM 50.5°F10.3°C 47.4°F8.6°C 89% Calm Calm 1.1 mph1.8 kmh 29.62 in1003.0 mb 0.05 in1.3 mm 0.00 in0.0 mm 0.34 in8.6 mm
06:55 PM 50.5°F10.3°C 47.4°F8.6°C 89% Calm Calm -- 29.62 in1003.0 mb 0.05 in1.3 mm 0.00 in0.0 mm 0.34 in8.6 mm
07:00 PM 50.4°F10.2°C 47.2°F8.4°C 89% Calm Calm -- 29.62 in1003.0 mb 0.00 in0.0 mm 0.00 in0.0 mm 0.34 in8.6 mm
07:05 PM 50.4°F10.2°C 47.2°F8.4°C 89% Calm Calm -- 29.62 in1003.0 mb 0.00 in0.0 mm 0.00 in0.0 mm 0.34 in8.6 mm
07:10 PM 50.4°F10.2°C 47.2°F8.4°C 89% Calm Calm -- 29.62 in1003.0 mb 0.00 in0.0 mm 0.00 in0.0 mm 0.34 in8.6 mm
07:15 PM 50.2°F10.1°C 47.4°F8.6°C 90% Calm Calm -- 29.62 in1003.0 mb 0.00 in0.0 mm 0.00 in0.0 mm 0.34 in8.6 mm
07:20 PM 50.2°F10.1°C 47.4°F8.6°C 90% 1.6 mph WSW2.6 kmh WSW 2.7 mph4.3 kmh 29.62 in1003.0 mb 0.00 in0.0 mm 0.00 in0.0 mm 0.34 in8.6 mm
07:25 PM 49.8°F9.9°C 47.0°F8.3°C 90% 0.9 mph WSW1.4 kmh WSW 2.7 mph4.3 kmh 29.62 in1003.0 mb 0.00 in0.0 mm 0.00 in0.0 mm 0.34 in8.6 mm
07:30 PM 49.6°F9.8°C 46.8°F8.2°C 90% Calm Calm 2.2 mph3.5 kmh 29.62 in1003.0 mb 0.00 in0.0 mm 0.00 in0.0 mm 0.34 in8.6 mm
07:35 PM 49.6°F9.8°C 46.8°F8.2°C 90% Calm Calm 2.2 mph3.5 kmh 29.62 in1003.0 mb 0.00 in0.0 mm 0.00 in0.0 mm 0.34 in8.6 mm
07:40 PM 49.3°F9.6°C 46.5°F8.1°C 90% Calm Calm -- 29.65 in1004.1 mb 0.00 in0.0 mm 0.00 in0.0 mm 0.34 in8.6 mm
07:45 PM 49.3°F9.6°C 46.5°F8.1°C 90% Calm Calm -- 29.65 in1004.1 mb 0.00 in0.0 mm 0.00 in0.0 mm 0.34 in8.6 mm
07:50 PM 48.9°F9.4°C 45.8°F7.7°C 89% Calm Calm 2.9 mph4.7 kmh 29.65 in1004.1 mb 0.00 in0.0 mm 0.00 in0.0 mm 0.34 in8.6 mm
07:55 PM 48.9°F9.4°C 45.8°F7.7°C 89% Calm Calm 2.9 mph4.7 kmh 29.65 in1004.1 mb 0.00 in0.0 mm 0.00 in0.0 mm 0.34 in8.6 mm
08:00 PM 48.9°F9.4°C 46.1°F7.8°C 90% Calm Calm -- 29.65 in1004.1 mb 0.00 in0.0 mm 0.00 in0.0 mm 0.34 in8.6 mm
08:05 PM 48.7°F9.3°C 45.9°F7.7°C 90% Calm Calm -- 29.65 in1004.1 mb 0.00 in0.0 mm 0.00 in0.0 mm 0.34 in8.6 mm
08:10 PM 48.6°F9.2°C 45.8°F7.7°C 90% Calm Calm 2.2 mph3.5 kmh 29.65 in1004.1 mb 0.00 in0.0 mm 0.00 in0.0 mm 0.34 in8.6 mm
08:15 PM 48.7°F9.3°C 45.9°F7.7°C 90% Calm Calm 2.2 mph3.5 kmh 29.65 in1004.1 mb 0.00 in0.0 mm 0.00 in0.0 mm 0.34 in8.6 mm
08:20 PM 48.7°F9.3°C 46.2°F7.9°C 91% Calm Calm 0.9 mph1.4 kmh 29.65 in1004.1 mb 0.00 in0.0 mm 0.00 in0.0 mm 0.34 in8.6 mm
08:25 PM 48.6°F9.2°C 46.1°F7.8°C 91% 1.1 mph NE1.8 kmh NE 1.6 mph2.6 kmh 29.65 in1004.1 mb 0.00 in0.0 mm 0.00 in0.0 mm 0.34 in8.6 mm
08:30 PM 48.6°F9.2°C 46.1°F7.8°C 91% Calm Calm 1.6 mph2.6 kmh 29.65 in1004.1 mb 0.00 in0.0 mm 0.00 in0.0 mm 0.34 in8.6 mm
08:35 PM 48.2°F9.0°C 45.7°F7.6°C 91% Calm Calm 1.1 mph1.8 kmh 29.65 in1004.1 mb 0.00 in0.0 mm 0.00 in0.0 mm 0.34 in8.6 mm
08:40 PM 48.2°F9.0°C 45.4°F7.4°C 90% Calm Calm 1.1 mph1.8 kmh 29.65 in1004.1 mb 0.00 in0.0 mm 0.00 in0.0 mm 0.34 in8.6 mm
08:45 PM 48.0°F8.9°C 45.5°F7.5°C 91% Calm Calm -- 29.65 in1004.1 mb 0.00 in0.0 mm 0.00 in0.0 mm 0.34 in8.6 mm
08:50 PM 47.7°F8.7°C 44.9°F7.2°C 90% Calm Calm -- 29.65 in1004.1 mb 0.00 in0.0 mm 0.00 in0.0 mm 0.34 in8.6 mm
08:55 PM 47.7°F8.7°C 45.2°F7.3°C 91% Calm Calm -- 29.65 in1004.1 mb 0.00 in0.0 mm 0.00 in0.0 mm 0.34 in8.6 mm
09:00 PM 47.5°F8.6°C 45.0°F7.2°C 91% Calm Calm -- 29.65 in1004.1 mb 0.00 in0.0 mm 0.00 in0.0 mm 0.34 in8.6 mm
09:05 PM 47.5°F8.6°C 45.0°F7.2°C 91% Calm Calm 1.1 mph1.8 kmh 29.65 in1004.1 mb 0.00 in0.0 mm 0.00 in0.0 mm 0.34 in8.6 mm
09:10 PM 47.3°F8.5°C 44.8°F7.1°C 91% Calm Calm 1.1 mph1.8 kmh 29.65 in1004.1 mb 0.00 in0.0 mm 0.00 in0.0 mm 0.34 in8.6 mm
09:15 PM 47.1°F8.4°C 44.6°F7.0°C 91% Calm Calm -- 29.65 in1004.1 mb 0.00 in0.0 mm 0.00 in0.0 mm 0.34 in8.6 mm
09:20 PM 47.1°F8.4°C 44.6°F7.0°C 91% Calm Calm -- 29.65 in1004.1 mb 0.00 in0.0 mm 0.00 in0.0 mm 0.34 in8.6 mm
09:25 PM 46.9°F8.3°C 44.4°F6.9°C 91% Calm Calm -- 29.65 in1004.1 mb 0.00 in0.0 mm 0.00 in0.0 mm 0.34 in8.6 mm
09:30 PM 46.9°F8.3°C 44.4°F6.9°C 91% Calm Calm 0.9 mph1.4 kmh 29.65 in1004.1 mb 0.00 in0.0 mm 0.00 in0.0 mm 0.34 in8.6 mm
09:35 PM 46.9°F8.3°C 44.4°F6.9°C 91% Calm Calm 0.9 mph1.4 kmh 29.65 in1004.1 mb 0.00 in0.0 mm 0.00 in0.0 mm 0.34 in8.6 mm
09:40 PM 46.8°F8.2°C 44.3°F6.8°C 91% Calm Calm -- 29.65 in1004.1 mb 0.00 in0.0 mm 0.00 in0.0 mm 0.34 in8.6 mm
09:45 PM 46.8°F8.2°C 44.3°F6.8°C 91% Calm Calm -- 29.65 in1004.1 mb 0.00 in0.0 mm 0.00 in0.0 mm 0.34 in8.6 mm